sensor_id;sensor_type;location;lat;lon;timestamp;temperature;humidity
7900;DHT22;3995;50.856;4.404;2023-02-28T00:02:21;8.40;41.10
7900;DHT22;3995;50.856;4.404;2023-02-28T00:04:48;8.40;41.10
7900;DHT22;3995;50.856;4.404;2023-02-28T00:07:19;8.40;41.00
7900;DHT22;3995;50.856;4.404;2023-02-28T00:09:46;8.40;41.00
7900;DHT22;3995;50.856;4.404;2023-02-28T00:12:14;8.70;40.80
7900;DHT22;3995;50.856;4.404;2023-02-28T00:14:41;8.60;40.70
7900;DHT22;3995;50.856;4.404;2023-02-28T00:17:08;8.50;40.70
7900;DHT22;3995;50.856;4.404;2023-02-28T00:19:35;8.50;40.90
7900;DHT22;3995;50.856;4.404;2023-02-28T00:22:03;8.50;40.90
7900;DHT22;3995;50.856;4.404;2023-02-28T00:24:32;8.40;40.80
7900;DHT22;3995;50.856;4.404;2023-02-28T00:26:59;8.40;40.90
7900;DHT22;3995;50.856;4.404;2023-02-28T00:29:26;8.40;41.00
7900;DHT22;3995;50.856;4.404;2023-02-28T00:31:54;8.30;41.00
7900;DHT22;3995;50.856;4.404;2023-02-28T00:34:21;8.30;41.10
7900;DHT22;3995;50.856;4.404;2023-02-28T00:36:48;8.30;41.10
7900;DHT22;3995;50.856;4.404;2023-02-28T00:39:15;8.30;41.20
7900;DHT22;3995;50.856;4.404;2023-02-28T00:41:43;8.30;41.20
7900;DHT22;3995;50.856;4.404;2023-02-28T00:44:10;8.20;41.30
7900;DHT22;3995;50.856;4.404;2023-02-28T00:46:37;8.20;41.30
7900;DHT22;3995;50.856;4.404;2023-02-28T00:49:05;8.20;41.30
7900;DHT22;3995;50.856;4.404;2023-02-28T00:51:32;8.20;41.40
7900;DHT22;3995;50.856;4.404;2023-02-28T00:53:59;8.20;41.40
7900;DHT22;3995;50.856;4.404;2023-02-28T00:56:26;8.20;41.30
7900;DHT22;3995;50.856;4.404;2023-02-28T00:58:54;8.20;41.30
7900;DHT22;3995;50.856;4.404;2023-02-28T01:01:22;8.20;41.30
7900;DHT22;3995;50.856;4.404;2023-02-28T01:03:49;8.20;41.30
7900;DHT22;3995;50.856;4.404;2023-02-28T01:06:17;8.20;41.30
7900;DHT22;3995;50.856;4.404;2023-02-28T01:08:44;8.20;41.30
7900;DHT22;3995;50.856;4.404;2023-02-28T01:11:12;8.20;41.30
7900;DHT22;3995;50.856;4.404;2023-02-28T01:13:42;8.20;41.40
7900;DHT22;3995;50.856;4.404;2023-02-28T01:16:11;8.20;41.40
7900;DHT22;3995;50.856;4.404;2023-02-28T01:18:38;8.20;41.40
7900;DHT22;3995;50.856;4.404;2023-02-28T01:21:07;8.20;41.60
7900;DHT22;3995;50.856;4.404;2023-02-28T01:23:35;8.10;41.70
7900;DHT22;3995;50.856;4.404;2023-02-28T01:26:06;8.10;41.80
7900;DHT22;3995;50.856;4.404;2023-02-28T01:28:34;8.20;41.80
7900;DHT22;3995;50.856;4.404;2023-02-28T01:31:02;8.10;41.70
7900;DHT22;3995;50.856;4.404;2023-02-28T01:33:31;8.20;41.70
7900;DHT22;3995;50.856;4.404;2023-02-28T01:35:59;8.20;41.60
7900;DHT22;3995;50.856;4.404;2023-02-28T01:38:27;8.10;41.70
7900;DHT22;3995;50.856;4.404;2023-02-28T01:40:54;8.10;41.60
7900;DHT22;3995;50.856;4.404;2023-02-28T01:43:23;8.20;41.60
7900;DHT22;3995;50.856;4.404;2023-02-28T01:45:51;8.10;41.50
7900;DHT22;3995;50.856;4.404;2023-02-28T01:48:19;8.10;41.60
7900;DHT22;3995;50.856;4.404;2023-02-28T01:50:49;8.10;42.20
7900;DHT22;3995;50.856;4.404;2023-02-28T01:53:19;8.10;41.70
7900;DHT22;3995;50.856;4.404;2023-02-28T01:55:50;8.00;41.60
7900;DHT22;3995;50.856;4.404;2023-02-28T01:58:19;8.00;42.20
7900;DHT22;3995;50.856;4.404;2023-02-28T02:00:46;8.00;41.70
7900;DHT22;3995;50.856;4.404;2023-02-28T02:03:15;8.00;41.70
7900;DHT22;3995;50.856;4.404;2023-02-28T02:05:45;8.00;41.70
7900;DHT22;3995;50.856;4.404;2023-02-28T02:08:19;7.90;41.70
7900;DHT22;3995;50.856;4.404;2023-02-28T02:10:49;8.00;41.90
7900;DHT22;3995;50.856;4.404;2023-02-28T02:13:30;8.00;41.90
7900;DHT22;3995;50.856;4.404;2023-02-28T02:16:06;8.00;41.80
7900;DHT22;3995;50.856;4.404;2023-02-28T02:18:42;7.90;41.90
7900;DHT22;3995;50.856;4.404;2023-02-28T02:24:39;7.90;41.80
7900;DHT22;3995;50.856;4.404;2023-02-28T02:27:46;7.90;41.90
7900;DHT22;3995;50.856;4.404;2023-02-28T02:30:56;7.90;41.90
7900;DHT22;3995;50.856;4.404;2023-02-28T02:34:00;7.90;42.00
7900;DHT22;3995;50.856;4.404;2023-02-28T02:36:33;7.90;42.00
7900;DHT22;3995;50.856;4.404;2023-02-28T02:39:06;7.80;42.10
7900;DHT22;3995;50.856;4.404;2023-02-28T02:41:44;7.80;42.10
7900;DHT22;3995;50.856;4.404;2023-02-28T02:44:17;7.80;42.10
7900;DHT22;3995;50.856;4.404;2023-02-28T02:46:51;7.80;42.10
7900;DHT22;3995;50.856;4.404;2023-02-28T02:49:26;7.80;42.10
7900;DHT22;3995;50.856;4.404;2023-02-28T02:51:55;7.80;42.10
7900;DHT22;3995;50.856;4.404;2023-02-28T02:54:28;7.80;42.20
7900;DHT22;3995;50.856;4.404;2023-02-28T02:56:58;7.80;42.20
7900;DHT22;3995;50.856;4.404;2023-02-28T02:59:28;7.80;42.30
7900;DHT22;3995;50.856;4.404;2023-02-28T03:01:58;7.80;42.30
7900;DHT22;3995;50.856;4.404;2023-02-28T03:04:32;7.80;42.30
7900;DHT22;3995;50.856;4.404;2023-02-28T03:07:00;7.80;42.30
7900;DHT22;3995;50.856;4.404;2023-02-28T03:09:27;7.70;42.30
7900;DHT22;3995;50.856;4.404;2023-02-28T03:11:56;7.70;42.30
7900;DHT22;3995;50.856;4.404;2023-02-28T03:14:32;7.70;42.30
7900;DHT22;3995;50.856;4.404;2023-02-28T03:17:16;7.70;42.30
7900;DHT22;3995;50.856;4.404;2023-02-28T03:19:54;7.70;42.30
7900;DHT22;3995;50.856;4.404;2023-02-28T03:22:36;7.60;42.40
7900;DHT22;3995;50.856;4.404;2023-02-28T03:25:11;7.70;42.50
7900;DHT22;3995;50.856;4.404;2023-02-28T03:27:45;7.60;42.50
7900;DHT22;3995;50.856;4.404;2023-02-28T03:30:23;7.70;42.60
7900;DHT22;3995;50.856;4.404;2023-02-28T03:32:56;7.70;42.50
7900;DHT22;3995;50.856;4.404;2023-02-28T03:35:28;7.70;42.50
7900;DHT22;3995;50.856;4.404;2023-02-28T03:38:01;7.70;42.50
7900;DHT22;3995;50.856;4.404;2023-02-28T03:40:33;7.60;42.40
7900;DHT22;3995;50.856;4.404;2023-02-28T03:43:07;7.70;42.50
7900;DHT22;3995;50.856;4.404;2023-02-28T03:45:37;7.70;42.50
7900;DHT22;3995;50.856;4.404;2023-02-28T03:48:09;7.70;42.50
7900;DHT22;3995;50.856;4.404;2023-02-28T03:50:42;7.60;42.40
7900;DHT22;3995;50.856;4.404;2023-02-28T03:53:13;7.60;42.50
7900;DHT22;3995;50.856;4.404;2023-02-28T03:55:43;7.60;42.60
7900;DHT22;3995;50.856;4.404;2023-02-28T03:58:15;7.60;42.60
7900;DHT22;3995;50.856;4.404;2023-02-28T04:00:49;7.60;42.50
7900;DHT22;3995;50.856;4.404;2023-02-28T04:03:17;7.70;42.60
7900;DHT22;3995;50.856;4.404;2023-02-28T04:05:51;7.60;42.60
7900;DHT22;3995;50.856;4.404;2023-02-28T04:08:21;7.60;42.50
7900;DHT22;3995;50.856;4.404;2023-02-28T04:10:53;7.60;42.60
7900;DHT22;3995;50.856;4.404;2023-02-28T04:13:22;7.60;42.60
7900;DHT22;3995;50.856;4.404;2023-02-28T04:15:49;7.50;42.60
7900;DHT22;3995;50.856;4.404;2023-02-28T04:18:16;7.60;42.80
7900;DHT22;3995;50.856;4.404;2023-02-28T04:20:43;7.60;42.80
7900;DHT22;3995;50.856;4.404;2023-02-28T04:23:12;7.60;42.70
7900;DHT22;3995;50.856;4.404;2023-02-28T04:25:39;7.60;42.60
7900;DHT22;3995;50.856;4.404;2023-02-28T04:28:07;7.60;42.60
7900;DHT22;3995;50.856;4.404;2023-02-28T04:30:35;7.60;42.60
7900;DHT22;3995;50.856;4.404;2023-02-28T04:33:02;7.60;42.70
7900;DHT22;3995;50.856;4.404;2023-02-28T04:35:30;7.60;42.60
7900;DHT22;3995;50.856;4.404;2023-02-28T04:37:57;7.50;42.60
7900;DHT22;3995;50.856;4.404;2023-02-28T04:40:26;7.60;42.80
7900;DHT22;3995;50.856;4.404;2023-02-28T04:42:53;7.60;42.70
7900;DHT22;3995;50.856;4.404;2023-02-28T04:45:20;7.50;42.60
7900;DHT22;3995;50.856;4.404;2023-02-28T04:47:48;7.50;42.70
7900;DHT22;3995;50.856;4.404;2023-02-28T04:50:15;7.50;42.80
7900;DHT22;3995;50.856;4.404;2023-02-28T04:52:45;7.50;42.80
7900;DHT22;3995;50.856;4.404;2023-02-28T04:55:13;7.50;42.80
7900;DHT22;3995;50.856;4.404;2023-02-28T04:57:42;7.50;42.80
7900;DHT22;3995;50.856;4.404;2023-02-28T05:00:10;7.50;42.90
7900;DHT22;3995;50.856;4.404;2023-02-28T05:02:40;7.50;43.00
7900;DHT22;3995;50.856;4.404;2023-02-28T05:05:08;7.50;43.00
7900;DHT22;3995;50.856;4.404;2023-02-28T05:07:35;7.50;42.90
7900;DHT22;3995;50.856;4.404;2023-02-28T05:10:09;7.50;43.00
7900;DHT22;3995;50.856;4.404;2023-02-28T05:12:37;7.50;43.10
7900;DHT22;3995;50.856;4.404;2023-02-28T05:15:15;7.50;43.20
7900;DHT22;3995;50.856;4.404;2023-02-28T05:17:42;7.60;43.10
7900;DHT22;3995;50.856;4.404;2023-02-28T05:20:11;7.50;43.10
7900;DHT22;3995;50.856;4.404;2023-02-28T05:22:39;7.50;43.00
7900;DHT22;3995;50.856;4.404;2023-02-28T05:25:08;7.50;43.30
7900;DHT22;3995;50.856;4.404;2023-02-28T05:27:35;7.50;43.20
7900;DHT22;3995;50.856;4.404;2023-02-28T05:30:11;7.50;43.20
7900;DHT22;3995;50.856;4.404;2023-02-28T05:32:43;7.60;43.30
7900;DHT22;3995;50.856;4.404;2023-02-28T05:35:11;7.60;43.30
7900;DHT22;3995;50.856;4.404;2023-02-28T05:37:41;7.60;43.30
7900;DHT22;3995;50.856;4.404;2023-02-28T05:40:12;7.60;43.10
7900;DHT22;3995;50.856;4.404;2023-02-28T05:42:41;7.60;43.10
7900;DHT22;3995;50.856;4.404;2023-02-28T05:45:10;7.50;43.10
7900;DHT22;3995;50.856;4.404;2023-02-28T05:47:37;7.50;43.20
7900;DHT22;3995;50.856;4.404;2023-02-28T05:50:06;7.50;43.20
7900;DHT22;3995;50.856;4.404;2023-02-28T05:52:35;7.60;43.30
7900;DHT22;3995;50.856;4.404;2023-02-28T05:55:03;7.60;43.30
7900;DHT22;3995;50.856;4.404;2023-02-28T05:57:30;7.50;43.20
7900;DHT22;3995;50.856;4.404;2023-02-28T05:59:57;7.50;43.30
7900;DHT22;3995;50.856;4.404;2023-02-28T06:02:26;7.50;43.30
7900;DHT22;3995;50.856;4.404;2023-02-28T06:04:53;7.50;43.30
7900;DHT22;3995;50.856;4.404;2023-02-28T06:07:21;7.50;43.40
7900;DHT22;3995;50.856;4.404;2023-02-28T06:09:48;7.50;43.40
7900;DHT22;3995;50.856;4.404;2023-02-28T06:12:15;7.50;43.40
7900;DHT22;3995;50.856;4.404;2023-02-28T06:14:43;7.50;43.50
7900;DHT22;3995;50.856;4.404;2023-02-28T06:17:10;7.50;43.50
7900;DHT22;3995;50.856;4.404;2023-02-28T06:19:39;7.50;43.70
7900;DHT22;3995;50.856;4.404;2023-02-28T06:22:07;7.50;43.80
7900;DHT22;3995;50.856;4.404;2023-02-28T06:24:34;7.50;43.90
7900;DHT22;3995;50.856;4.404;2023-02-28T06:27:01;7.60;43.90
7900;DHT22;3995;50.856;4.404;2023-02-28T06:29:30;7.60;43.80
7900;DHT22;3995;50.856;4.404;2023-02-28T06:31:57;7.60;43.80
7900;DHT22;3995;50.856;4.404;2023-02-28T06:34:25;7.60;43.70
7900;DHT22;3995;50.856;4.404;2023-02-28T06:36:54;7.60;43.70
7900;DHT22;3995;50.856;4.404;2023-02-28T06:39:21;7.60;43.70
7900;DHT22;3995;50.856;4.404;2023-02-28T06:41:48;7.60;43.70
7900;DHT22;3995;50.856;4.404;2023-02-28T06:44:18;7.50;43.70
7900;DHT22;3995;50.856;4.404;2023-02-28T06:46:45;7.50;43.70
7900;DHT22;3995;50.856;4.404;2023-02-28T06:49:12;7.50;43.60
7900;DHT22;3995;50.856;4.404;2023-02-28T06:51:42;7.50;43.70
7900;DHT22;3995;50.856;4.404;2023-02-28T06:54:12;7.50;43.80
7900;DHT22;3995;50.856;4.404;2023-02-28T06:56:40;7.50;43.80
7900;DHT22;3995;50.856;4.404;2023-02-28T06:59:07;7.50;43.90
7900;DHT22;3995;50.856;4.404;2023-02-28T07:01:34;7.50;43.90
7900;DHT22;3995;50.856;4.404;2023-02-28T07:04:02;7.60;43.80
7900;DHT22;3995;50.856;4.404;2023-02-28T07:06:31;7.60;43.90
7900;DHT22;3995;50.856;4.404;2023-02-28T07:08:59;7.60;44.00
7900;DHT22;3995;50.856;4.404;2023-02-28T07:11:28;7.60;43.90
7900;DHT22;3995;50.856;4.404;2023-02-28T07:13:58;7.60;43.80
7900;DHT22;3995;50.856;4.404;2023-02-28T07:16:26;7.70;44.00
7900;DHT22;3995;50.856;4.404;2023-02-28T07:18:53;7.70;44.00
7900;DHT22;3995;50.856;4.404;2023-02-28T07:21:22;7.70;44.00
7900;DHT22;3995;50.856;4.404;2023-02-28T07:23:50;7.70;43.90
7900;DHT22;3995;50.856;4.404;2023-02-28T07:26:19;7.70;43.90
7900;DHT22;3995;50.856;4.404;2023-02-28T07:28:50;7.70;43.90
7900;DHT22;3995;50.856;4.404;2023-02-28T07:31:18;7.70;43.90
7900;DHT22;3995;50.856;4.404;2023-02-28T07:33:45;7.70;43.90
7900;DHT22;3995;50.856;4.404;2023-02-28T07:36:14;7.70;44.00
7900;DHT22;3995;50.856;4.404;2023-02-28T07:38:46;7.60;43.90
7900;DHT22;3995;50.856;4.404;2023-02-28T07:41:15;7.60;43.90
7900;DHT22;3995;50.856;4.404;2023-02-28T07:43:43;7.60;44.00
7900;DHT22;3995;50.856;4.404;2023-02-28T07:46:13;7.70;44.00
7900;DHT22;3995;50.856;4.404;2023-02-28T07:48:42;7.70;43.90
7900;DHT22;3995;50.856;4.404;2023-02-28T07:51:09;7.70;43.90
7900;DHT22;3995;50.856;4.404;2023-02-28T07:53:36;7.70;43.70
7900;DHT22;3995;50.856;4.404;2023-02-28T07:56:04;7.70;43.60
7900;DHT22;3995;50.856;4.404;2023-02-28T07:58:31;7.70;43.30
7900;DHT22;3995;50.856;4.404;2023-02-28T08:01:05;7.80;43.20
7900;DHT22;3995;50.856;4.404;2023-02-28T08:03:34;7.80;43.00
7900;DHT22;3995;50.856;4.404;2023-02-28T08:06:02;7.80;42.70
7900;DHT22;3995;50.856;4.404;2023-02-28T08:08:30;7.80;42.50
7900;DHT22;3995;50.856;4.404;2023-02-28T08:10:58;7.70;42.40
7900;DHT22;3995;50.856;4.404;2023-02-28T08:13:26;7.80;42.30
7900;DHT22;3995;50.856;4.404;2023-02-28T08:15:54;7.80;42.20
7900;DHT22;3995;50.856;4.404;2023-02-28T08:18:21;7.70;42.10
7900;DHT22;3995;50.856;4.404;2023-02-28T08:20:50;7.70;41.90
7900;DHT22;3995;50.856;4.404;2023-02-28T08:23:17;7.70;41.60
7900;DHT22;3995;50.856;4.404;2023-02-28T08:25:44;7.70;41.50
7900;DHT22;3995;50.856;4.404;2023-02-28T08:28:12;7.70;41.60
7900;DHT22;3995;50.856;4.404;2023-02-28T08:30:39;7.70;41.40
7900;DHT22;3995;50.856;4.404;2023-02-28T08:33:06;7.70;41.30
7900;DHT22;3995;50.856;4.404;2023-02-28T08:35:35;7.70;41.30
7900;DHT22;3995;50.856;4.404;2023-02-28T08:38:04;7.70;41.10
7900;DHT22;3995;50.856;4.404;2023-02-28T08:40:31;7.70;40.90
7900;DHT22;3995;50.856;4.404;2023-02-28T08:42:59;7.80;40.80
7900;DHT22;3995;50.856;4.404;2023-02-28T08:45:26;7.70;40.50
7900;DHT22;3995;50.856;4.404;2023-02-28T08:47:54;7.80;40.50
7900;DHT22;3995;50.856;4.404;2023-02-28T08:50:22;7.80;40.30
7900;DHT22;3995;50.856;4.404;2023-02-28T08:52:49;7.70;40.10
7900;DHT22;3995;50.856;4.404;2023-02-28T08:55:18;7.70;39.90
7900;DHT22;3995;50.856;4.404;2023-02-28T08:57:45;7.70;39.50
7900;DHT22;3995;50.856;4.404;2023-02-28T09:00:13;7.80;39.50
7900;DHT22;3995;50.856;4.404;2023-02-28T09:02:40;7.70;39.40
7900;DHT22;3995;50.856;4.404;2023-02-28T09:05:09;7.80;39.50
7900;DHT22;3995;50.856;4.404;2023-02-28T09:07:37;7.80;39.50
7900;DHT22;3995;50.856;4.404;2023-02-28T09:10:05;7.70;39.20
7900;DHT22;3995;50.856;4.404;2023-02-28T09:12:34;7.70;39.10
7900;DHT22;3995;50.856;4.404;2023-02-28T09:15:02;7.80;39.10
7900;DHT22;3995;50.856;4.404;2023-02-28T09:17:29;7.70;39.00
7900;DHT22;3995;50.856;4.404;2023-02-28T09:19:57;7.80;39.00
7900;DHT22;3995;50.856;4.404;2023-02-28T09:22:24;7.80;38.80
7900;DHT22;3995;50.856;4.404;2023-02-28T09:24:52;7.80;38.50
7900;DHT22;3995;50.856;4.404;2023-02-28T09:27:19;7.80;38.20
7900;DHT22;3995;50.856;4.404;2023-02-28T09:29:48;7.90;38.00
7900;DHT22;3995;50.856;4.404;2023-02-28T09:32:16;7.90;37.80
7900;DHT22;3995;50.856;4.404;2023-02-28T09:34:43;8.00;37.80
7900;DHT22;3995;50.856;4.404;2023-02-28T09:37:11;8.10;37.60
7900;DHT22;3995;50.856;4.404;2023-02-28T09:39:41;8.10;37.10
7900;DHT22;3995;50.856;4.404;2023-02-28T09:42:19;8.10;36.80
7900;DHT22;3995;50.856;4.404;2023-02-28T09:44:50;8.20;36.60
7900;DHT22;3995;50.856;4.404;2023-02-28T09:47:25;8.30;36.60
7900;DHT22;3995;50.856;4.404;2023-02-28T09:49:54;8.40;36.20
7900;DHT22;3995;50.856;4.404;2023-02-28T09:52:29;8.40;36.10
7900;DHT22;3995;50.856;4.404;2023-02-28T09:54:58;8.40;35.80
7900;DHT22;3995;50.856;4.404;2023-02-28T09:57:32;8.50;35.90
7900;DHT22;3995;50.856;4.404;2023-02-28T10:00:11;8.60;35.70
7900;DHT22;3995;50.856;4.404;2023-02-28T10:02:56;8.70;35.80
7900;DHT22;3995;50.856;4.404;2023-02-28T10:05:27;8.80;35.60
7900;DHT22;3995;50.856;4.404;2023-02-28T10:08:03;8.90;35.30
7900;DHT22;3995;50.856;4.404;2023-02-28T10:10:37;8.90;34.70
7900;DHT22;3995;50.856;4.404;2023-02-28T10:13:15;9.00;34.50
7900;DHT22;3995;50.856;4.404;2023-02-28T10:15:47;9.10;34.20
7900;DHT22;3995;50.856;4.404;2023-02-28T10:18:21;9.20;34.70
7900;DHT22;3995;50.856;4.404;2023-02-28T10:20:50;9.30;33.80
7900;DHT22;3995;50.856;4.404;2023-02-28T10:23:22;9.30;33.50
7900;DHT22;3995;50.856;4.404;2023-02-28T10:25:57;9.40;33.30
7900;DHT22;3995;50.856;4.404;2023-02-28T10:28:32;9.50;33.40
7900;DHT22;3995;50.856;4.404;2023-02-28T10:31:02;9.60;33.00
7900;DHT22;3995;50.856;4.404;2023-02-28T10:33:32;9.70;32.50
7900;DHT22;3995;50.856;4.404;2023-02-28T10:36:00;9.80;32.00
7900;DHT22;3995;50.856;4.404;2023-02-28T10:38:32;10.00;30.60
7900;DHT22;3995;50.856;4.404;2023-02-28T10:41:05;10.10;30.20
7900;DHT22;3995;50.856;4.404;2023-02-28T10:43:33;10.20;30.00
7900;DHT22;3995;50.856;4.404;2023-02-28T10:46:04;10.30;30.00
7900;DHT22;3995;50.856;4.404;2023-02-28T10:48:38;10.50;29.70
7900;DHT22;3995;50.856;4.404;2023-02-28T10:51:07;10.50;29.50
7900;DHT22;3995;50.856;4.404;2023-02-28T10:53:37;10.60;29.30
7900;DHT22;3995;50.856;4.404;2023-02-28T10:56:15;10.70;29.20
7900;DHT22;3995;50.856;4.404;2023-02-28T10:58:49;10.80;29.20
7900;DHT22;3995;50.856;4.404;2023-02-28T11:01:20;10.90;29.10
7900;DHT22;3995;50.856;4.404;2023-02-28T11:03:51;10.90;28.70
7900;DHT22;3995;50.856;4.404;2023-02-28T11:06:21;10.90;28.60
7900;DHT22;3995;50.856;4.404;2023-02-28T11:08:51;10.90;28.40
7900;DHT22;3995;50.856;4.404;2023-02-28T11:11:20;10.90;28.40
7900;DHT22;3995;50.856;4.404;2023-02-28T11:13:52;10.80;28.40
7900;DHT22;3995;50.856;4.404;2023-02-28T11:16:22;10.70;28.50
7900;DHT22;3995;50.856;4.404;2023-02-28T11:18:57;10.60;28.40
7900;DHT22;3995;50.856;4.404;2023-02-28T11:21:28;10.40;28.30
7900;DHT22;3995;50.856;4.404;2023-02-28T11:24:01;10.30;28.30
7900;DHT22;3995;50.856;4.404;2023-02-28T11:26:37;10.20;28.50
7900;DHT22;3995;50.856;4.404;2023-02-28T11:29:20;10.10;28.60
7900;DHT22;3995;50.856;4.404;2023-02-28T11:32:13;10.10;28.70
7900;DHT22;3995;50.856;4.404;2023-02-28T11:34:42;10.00;28.80
7900;DHT22;3995;50.856;4.404;2023-02-28T11:37:13;9.90;29.70
7900;DHT22;3995;50.856;4.404;2023-02-28T11:39:42;9.90;29.60
7900;DHT22;3995;50.856;4.404;2023-02-28T11:42:37;9.80;29.60
7900;DHT22;3995;50.856;4.404;2023-02-28T11:45:15;9.80;29.30
7900;DHT22;3995;50.856;4.404;2023-02-28T11:47:55;9.70;29.60
7900;DHT22;3995;50.856;4.404;2023-02-28T11:50:42;9.60;29.50
7900;DHT22;3995;50.856;4.404;2023-02-28T11:53:21;9.60;29.40
7900;DHT22;3995;50.856;4.404;2023-02-28T11:55:54;9.60;29.50
7900;DHT22;3995;50.856;4.404;2023-02-28T11:58:37;9.50;29.60
7900;DHT22;3995;50.856;4.404;2023-02-28T12:01:15;9.50;29.60
7900;DHT22;3995;50.856;4.404;2023-02-28T12:03:56;9.40;29.70
7900;DHT22;3995;50.856;4.404;2023-02-28T12:06:30;9.40;29.60
7900;DHT22;3995;50.856;4.404;2023-02-28T12:09:09;9.40;29.70
7900;DHT22;3995;50.856;4.404;2023-02-28T12:11:50;9.40;29.60
7900;DHT22;3995;50.856;4.404;2023-02-28T12:14:38;9.40;29.70
7900;DHT22;3995;50.856;4.404;2023-02-28T12:17:22;9.40;29.70
7900;DHT22;3995;50.856;4.404;2023-02-28T12:19:58;9.40;29.50
7900;DHT22;3995;50.856;4.404;2023-02-28T12:22:30;9.40;29.40
7900;DHT22;3995;50.856;4.404;2023-02-28T12:25:36;9.30;29.30
7900;DHT22;3995;50.856;4.404;2023-02-28T12:28:08;9.40;29.20
7900;DHT22;3995;50.856;4.404;2023-02-28T12:30:41;9.30;29.50
7900;DHT22;3995;50.856;4.404;2023-02-28T12:33:15;9.30;29.50
7900;DHT22;3995;50.856;4.404;2023-02-28T12:35:49;9.30;29.50
7900;DHT22;3995;50.856;4.404;2023-02-28T12:38:19;9.30;29.30
7900;DHT22;3995;50.856;4.404;2023-02-28T12:40:52;9.30;29.30
7900;DHT22;3995;50.856;4.404;2023-02-28T12:43:22;9.30;29.20
7900;DHT22;3995;50.856;4.404;2023-02-28T12:45:56;9.30;29.30
7900;DHT22;3995;50.856;4.404;2023-02-28T12:48:29;9.30;29.30
7900;DHT22;3995;50.856;4.404;2023-02-28T12:51:00;9.30;29.20
7900;DHT22;3995;50.856;4.404;2023-02-28T12:53:35;9.30;29.30
7900;DHT22;3995;50.856;4.404;2023-02-28T12:56:12;9.30;29.10
7900;DHT22;3995;50.856;4.404;2023-02-28T12:58:43;9.20;29.10
7900;DHT22;3995;50.856;4.404;2023-02-28T13:04:52;9.20;28.90
7900;DHT22;3995;50.856;4.404;2023-02-28T13:10:49;9.20;29.00
7900;DHT22;3995;50.856;4.404;2023-02-28T13:13:22;9.10;29.10
7900;DHT22;3995;50.856;4.404;2023-02-28T13:16:05;9.10;29.00
7900;DHT22;3995;50.856;4.404;2023-02-28T13:18:35;9.20;29.00
7900;DHT22;3995;50.856;4.404;2023-02-28T13:21:04;9.10;29.10
7900;DHT22;3995;50.856;4.404;2023-02-28T13:23:58;9.10;29.10
7900;DHT22;3995;50.856;4.404;2023-02-28T13:29:34;9.10;29.10
7900;DHT22;3995;50.856;4.404;2023-02-28T13:35:48;9.10;29.00
7900;DHT22;3995;50.856;4.404;2023-02-28T13:38:23;9.10;29.10
7900;DHT22;3995;50.856;4.404;2023-02-28T13:40:50;9.10;29.10
7900;DHT22;3995;50.856;4.404;2023-02-28T13:43:18;9.10;28.90
7900;DHT22;3995;50.856;4.404;2023-02-28T13:46:08;9.10;28.90
7900;DHT22;3995;50.856;4.404;2023-02-28T13:48:37;9.20;28.70
7900;DHT22;3995;50.856;4.404;2023-02-28T13:51:38;9.10;28.80
7900;DHT22;3995;50.856;4.404;2023-02-28T13:54:21;9.20;28.50
7900;DHT22;3995;50.856;4.404;2023-02-28T13:57:01;9.20;28.70
7900;DHT22;3995;50.856;4.404;2023-02-28T13:59:35;9.20;28.70
7900;DHT22;3995;50.856;4.404;2023-02-28T14:02:37;9.20;28.60
7900;DHT22;3995;50.856;4.404;2023-02-28T14:05:13;9.20;28.40
7900;DHT22;3995;50.856;4.404;2023-02-28T14:07:45;9.10;28.60
7900;DHT22;3995;50.856;4.404;2023-02-28T14:10:24;9.10;28.60
7900;DHT22;3995;50.856;4.404;2023-02-28T14:13:01;9.20;28.60
7900;DHT22;3995;50.856;4.404;2023-02-28T14:15:45;9.20;28.60
7900;DHT22;3995;50.856;4.404;2023-02-28T14:18:28;9.20;28.60
7900;DHT22;3995;50.856;4.404;2023-02-28T14:21:03;9.20;28.70
7900;DHT22;3995;50.856;4.404;2023-02-28T14:23:52;9.20;28.60
7900;DHT22;3995;50.856;4.404;2023-02-28T14:26:32;9.20;28.60
7900;DHT22;3995;50.856;4.404;2023-02-28T14:29:32;9.20;28.60
7900;DHT22;3995;50.856;4.404;2023-02-28T14:32:10;9.20;28.60
7900;DHT22;3995;50.856;4.404;2023-02-28T14:34:46;9.10;28.70
7900;DHT22;3995;50.856;4.404;2023-02-28T14:37:20;9.20;29.40
7900;DHT22;3995;50.856;4.404;2023-02-28T14:39:49;9.20;29.00
7900;DHT22;3995;50.856;4.404;2023-02-28T14:42:28;9.20;28.90
7900;DHT22;3995;50.856;4.404;2023-02-28T14:44:55;9.20;28.70
7900;DHT22;3995;50.856;4.404;2023-02-28T14:47:24;9.20;29.40
7900;DHT22;3995;50.856;4.404;2023-02-28T14:49:54;9.20;28.90
7900;DHT22;3995;50.856;4.404;2023-02-28T14:52:24;9.20;28.90
7900;DHT22;3995;50.856;4.404;2023-02-28T14:54:54;9.20;28.90
7900;DHT22;3995;50.856;4.404;2023-02-28T14:57:23;9.20;28.90
7900;DHT22;3995;50.856;4.404;2023-02-28T15:00:03;9.20;28.90
7900;DHT22;3995;50.856;4.404;2023-02-28T15:02:37;9.20;28.90
7900;DHT22;3995;50.856;4.404;2023-02-28T15:05:26;9.20;29.00
7900;DHT22;3995;50.856;4.404;2023-02-28T15:08:11;9.20;29.00
7900;DHT22;3995;50.856;4.404;2023-02-28T15:10:39;9.20;29.20
7900;DHT22;3995;50.856;4.404;2023-02-28T15:13:12;9.10;29.30
7900;DHT22;3995;50.856;4.404;2023-02-28T15:15:47;9.20;29.20
7900;DHT22;3995;50.856;4.404;2023-02-28T15:18:23;9.20;29.10
7900;DHT22;3995;50.856;4.404;2023-02-28T15:20:55;9.20;29.20
7900;DHT22;3995;50.856;4.404;2023-02-28T15:23:24;9.10;29.20
7900;DHT22;3995;50.856;4.404;2023-02-28T15:25:53;9.10;29.30
7900;DHT22;3995;50.856;4.404;2023-02-28T15:28:28;9.10;29.40
7900;DHT22;3995;50.856;4.404;2023-02-28T15:30:59;9.10;29.50
7900;DHT22;3995;50.856;4.404;2023-02-28T15:33:28;9.10;29.60
7900;DHT22;3995;50.856;4.404;2023-02-28T15:36:14;9.10;29.70
7900;DHT22;3995;50.856;4.404;2023-02-28T15:38:54;9.20;29.70
7900;DHT22;3995;50.856;4.404;2023-02-28T15:41:24;9.20;29.90
7900;DHT22;3995;50.856;4.404;2023-02-28T15:44:13;9.20;29.90
7900;DHT22;3995;50.856;4.404;2023-02-28T15:46:43;9.30;29.70
7900;DHT22;3995;50.856;4.404;2023-02-28T15:49:18;9.20;29.70
7900;DHT22;3995;50.856;4.404;2023-02-28T15:51:51;9.20;29.80
7900;DHT22;3995;50.856;4.404;2023-02-28T15:54:21;9.20;29.80
7900;DHT22;3995;50.856;4.404;2023-02-28T15:56:52;9.20;29.80
7900;DHT22;3995;50.856;4.404;2023-02-28T15:59:22;9.20;29.80
7900;DHT22;3995;50.856;4.404;2023-02-28T16:02:11;9.20;29.70
7900;DHT22;3995;50.856;4.404;2023-02-28T16:04:56;9.20;29.80
7900;DHT22;3995;50.856;4.404;2023-02-28T16:07:28;9.20;29.80
7900;DHT22;3995;50.856;4.404;2023-02-28T16:09:56;9.10;29.90
7900;DHT22;3995;50.856;4.404;2023-02-28T16:12:26;9.10;29.90
7900;DHT22;3995;50.856;4.404;2023-02-28T16:14:55;9.20;30.00
7900;DHT22;3995;50.856;4.404;2023-02-28T16:17:24;9.20;30.00
7900;DHT22;3995;50.856;4.404;2023-02-28T16:19:52;9.20;30.00
7900;DHT22;3995;50.856;4.404;2023-02-28T16:22:20;9.10;30.00
7900;DHT22;3995;50.856;4.404;2023-02-28T16:24:49;9.20;30.10
7900;DHT22;3995;50.856;4.404;2023-02-28T16:27:19;9.20;30.30
7900;DHT22;3995;50.856;4.404;2023-02-28T16:29:47;9.20;30.30
7900;DHT22;3995;50.856;4.404;2023-02-28T16:32:15;9.10;30.40
7900;DHT22;3995;50.856;4.404;2023-02-28T16:34:43;9.10;30.50
7900;DHT22;3995;50.856;4.404;2023-02-28T16:37:15;9.10;30.60
7900;DHT22;3995;50.856;4.404;2023-02-28T16:39:44;9.10;30.50
7900;DHT22;3995;50.856;4.404;2023-02-28T16:42:16;9.10;30.40
7900;DHT22;3995;50.856;4.404;2023-02-28T16:44:46;9.10;30.30
7900;DHT22;3995;50.856;4.404;2023-02-28T16:47:13;9.10;30.30
7900;DHT22;3995;50.856;4.404;2023-02-28T16:49:40;9.00;30.40
7900;DHT22;3995;50.856;4.404;2023-02-28T16:52:09;9.00;30.50
7900;DHT22;3995;50.856;4.404;2023-02-28T16:54:37;9.00;30.60
7900;DHT22;3995;50.856;4.404;2023-02-28T16:57:05;9.10;30.70
7900;DHT22;3995;50.856;4.404;2023-02-28T16:59:34;9.10;30.70
7900;DHT22;3995;50.856;4.404;2023-02-28T17:02:01;9.10;30.80
7900;DHT22;3995;50.856;4.404;2023-02-28T17:04:30;9.10;30.90